Terminal Aerodrome Forecast
Issued by NWS Charleston, WV

Current Version | Previous Version | Text Only | Print | Product List | Glossary Off
Versions: 1 2 3 4 5 6 7 8 9 10 11 12 13 14 15 16 17 18 19 20 21 22 23 24 25

000
FTUS41 KRLX 242324 AAB
TAFCRW
TAF AMD
KCRW 242324Z 2423/2524 27005KT P6SM SCT050
     FM250600 00000KT 4SM BR SCT250
     FM250700 00000KT 2SM BR SCT250
     FM250900 00000KT 1/2SM FG VV001
     FM251230 00000KT 4SM BR SCT002
     FM251300 00000KT P6SM FEW035
     FM251700 26006KT P6SM BKN035=

USA.gov is the U.S. government's official web portal to all federal, state and local government web resources and services.